sensor_id;sensor_type;location;lat;lon;timestamp;P1;durP1;ratioP1;P2;durP2;ratioP2
13999;SDS011;7075;53.574;10.054;2022-10-20T00:01:21;129.03;;;122.40;;
13999;SDS011;7075;53.574;10.054;2022-10-20T00:03:52;129.70;;;122.88;;
13999;SDS011;7075;53.574;10.054;2022-10-20T00:06:19;120.13;;;114.03;;
13999;SDS011;7075;53.574;10.054;2022-10-20T00:08:50;127.93;;;121.32;;
13999;SDS011;7075;53.574;10.054;2022-10-20T00:11:17;133.02;;;126.22;;
13999;SDS011;7075;53.574;10.054;2022-10-20T00:13:48;127.72;;;121.38;;
13999;SDS011;7075;53.574;10.054;2022-10-20T00:16:18;126.95;;;120.25;;
13999;SDS011;7075;53.574;10.054;2022-10-20T00:18:47;127.93;;;121.45;;
13999;SDS011;7075;53.574;10.054;2022-10-20T00:21:17;126.95;;;120.57;;
13999;SDS011;7075;53.574;10.054;2022-10-20T00:23:45;119.37;;;113.27;;
13999;SDS011;7075;53.574;10.054;2022-10-20T00:26:12;124.75;;;118.32;;
13999;SDS011;7075;53.574;10.054;2022-10-20T00:28:48;122.72;;;116.53;;
13999;SDS011;7075;53.574;10.054;2022-10-20T00:31:19;118.10;;;112.25;;
13999;SDS011;7075;53.574;10.054;2022-10-20T00:33:45;118.75;;;112.63;;
13999;SDS011;7075;53.574;10.054;2022-10-20T00:36:15;114.25;;;108.65;;
13999;SDS011;7075;53.574;10.054;2022-10-20T00:38:45;119.15;;;113.25;;
13999;SDS011;7075;53.574;10.054;2022-10-20T00:41:12;124.65;;;118.38;;
13999;SDS011;7075;53.574;10.054;2022-10-20T00:47:02;121.32;;;115.32;;
13999;SDS011;7075;53.574;10.054;2022-10-20T00:49:30;119.53;;;113.53;;
13999;SDS011;7075;53.574;10.054;2022-10-20T00:51:56;122.10;;;116.00;;
13999;SDS011;7075;53.574;10.054;2022-10-20T00:54:22;120.28;;;114.30;;
13999;SDS011;7075;53.574;10.054;2022-10-20T00:56:54;111.40;;;105.57;;
13999;SDS011;7075;53.574;10.054;2022-10-20T00:59:25;119.32;;;113.38;;
13999;SDS011;7075;53.574;10.054;2022-10-20T01:01:58;112.47;;;106.78;;
13999;SDS011;7075;53.574;10.054;2022-10-20T01:04:27;116.45;;;110.65;;
13999;SDS011;7075;53.574;10.054;2022-10-20T01:06:54;114.22;;;108.60;;
13999;SDS011;7075;53.574;10.054;2022-10-20T01:09:20;112.47;;;106.88;;
13999;SDS011;7075;53.574;10.054;2022-10-20T01:14:32;121.30;;;115.07;;
13999;SDS011;7075;53.574;10.054;2022-10-20T01:17:05;112.32;;;106.53;;
13999;SDS011;7075;53.574;10.054;2022-10-20T01:28:19;108.13;;;102.72;;
13999;SDS011;7075;53.574;10.054;2022-10-20T01:31:24;108.65;;;103.25;;
13999;SDS011;7075;53.574;10.054;2022-10-20T01:42:26;102.70;;;97.53;;
13999;SDS011;7075;53.574;10.054;2022-10-20T01:44:54;102.03;;;96.88;;
13999;SDS011;7075;53.574;10.054;2022-10-20T01:47:23;100.18;;;95.07;;
13999;SDS011;7075;53.574;10.054;2022-10-20T01:49:50;103.30;;;98.05;;
13999;SDS011;7075;53.574;10.054;2022-10-20T01:52:17;101.60;;;96.50;;
13999;SDS011;7075;53.574;10.054;2022-10-20T01:54:42;105.78;;;100.43;;
13999;SDS011;7075;53.574;10.054;2022-10-20T01:57:24;110.27;;;104.77;;
13999;SDS011;7075;53.574;10.054;2022-10-20T02:00:12;107.57;;;102.18;;
13999;SDS011;7075;53.574;10.054;2022-10-20T02:05:32;100.40;;;95.40;;
13999;SDS011;7075;53.574;10.054;2022-10-20T02:08:11;102.10;;;96.90;;
13999;SDS011;7075;53.574;10.054;2022-10-20T02:10:45;109.97;;;104.40;;
13999;SDS011;7075;53.574;10.054;2022-10-20T02:13:13;103.83;;;98.63;;
13999;SDS011;7075;53.574;10.054;2022-10-20T02:15:46;106.13;;;100.63;;
13999;SDS011;7075;53.574;10.054;2022-10-20T02:18:17;105.07;;;99.88;;
13999;SDS011;7075;53.574;10.054;2022-10-20T02:20:49;98.40;;;93.57;;
13999;SDS011;7075;53.574;10.054;2022-10-20T02:23:18;103.38;;;98.28;;
13999;SDS011;7075;53.574;10.054;2022-10-20T02:25:45;103.28;;;98.07;;
13999;SDS011;7075;53.574;10.054;2022-10-20T02:28:13;101.03;;;96.07;;
13999;SDS011;7075;53.574;10.054;2022-10-20T02:30:41;105.40;;;100.10;;
13999;SDS011;7075;53.574;10.054;2022-10-20T02:33:07;103.28;;;98.00;;
13999;SDS011;7075;53.574;10.054;2022-10-20T02:35:33;103.32;;;98.15;;
13999;SDS011;7075;53.574;10.054;2022-10-20T02:37:59;101.13;;;96.10;;
13999;SDS011;7075;53.574;10.054;2022-10-20T02:40:27;103.75;;;98.50;;
13999;SDS011;7075;53.574;10.054;2022-10-20T02:42:52;105.10;;;99.85;;
13999;SDS011;7075;53.574;10.054;2022-10-20T02:45:18;105.13;;;99.82;;
13999;SDS011;7075;53.574;10.054;2022-10-20T02:47:43;106.90;;;101.50;;
13999;SDS011;7075;53.574;10.054;2022-10-20T02:50:09;110.33;;;104.80;;
13999;SDS011;7075;53.574;10.054;2022-10-20T02:52:34;103.10;;;97.80;;
13999;SDS011;7075;53.574;10.054;2022-10-20T02:55:00;105.78;;;100.45;;
13999;SDS011;7075;53.574;10.054;2022-10-20T02:57:26;114.45;;;108.65;;
13999;SDS011;7075;53.574;10.054;2022-10-20T02:59:52;120.67;;;114.50;;
13999;SDS011;7075;53.574;10.054;2022-10-20T03:02:18;116.38;;;110.53;;
13999;SDS011;7075;53.574;10.054;2022-10-20T03:04:44;126.25;;;119.85;;
13999;SDS011;7075;53.574;10.054;2022-10-20T03:07:09;124.33;;;118.10;;
13999;SDS011;7075;53.574;10.054;2022-10-20T03:09:36;124.22;;;117.97;;
13999;SDS011;7075;53.574;10.054;2022-10-20T03:12:02;123.90;;;117.70;;
13999;SDS011;7075;53.574;10.054;2022-10-20T03:14:28;127.57;;;121.20;;
13999;SDS011;7075;53.574;10.054;2022-10-20T03:16:53;122.80;;;116.70;;
13999;SDS011;7075;53.574;10.054;2022-10-20T03:19:19;127.45;;;121.05;;
13999;SDS011;7075;53.574;10.054;2022-10-20T03:21:44;129.37;;;122.67;;
13999;SDS011;7075;53.574;10.054;2022-10-20T03:24:11;129.80;;;123.07;;
13999;SDS011;7075;53.574;10.054;2022-10-20T03:26:36;134.20;;;127.35;;
13999;SDS011;7075;53.574;10.054;2022-10-20T03:29:02;134.65;;;127.63;;
13999;SDS011;7075;53.574;10.054;2022-10-20T03:31:28;132.00;;;125.40;;
13999;SDS011;7075;53.574;10.054;2022-10-20T03:33:53;140.23;;;133.13;;
13999;SDS011;7075;53.574;10.054;2022-10-20T03:36:19;136.27;;;129.43;;
13999;SDS011;7075;53.574;10.054;2022-10-20T03:38:45;140.03;;;132.90;;
13999;SDS011;7075;53.574;10.054;2022-10-20T03:41:10;136.95;;;130.02;;
13999;SDS011;7075;53.574;10.054;2022-10-20T03:43:39;141.55;;;134.38;;
13999;SDS011;7075;53.574;10.054;2022-10-20T03:46:07;139.27;;;132.15;;
13999;SDS011;7075;53.574;10.054;2022-10-20T03:48:34;139.32;;;132.38;;
13999;SDS011;7075;53.574;10.054;2022-10-20T03:51:01;134.30;;;127.50;;
13999;SDS011;7075;53.574;10.054;2022-10-20T03:53:28;136.75;;;129.48;;
13999;SDS011;7075;53.574;10.054;2022-10-20T03:55:54;125.60;;;119.18;;
13999;SDS011;7075;53.574;10.054;2022-10-20T03:58:19;129.80;;;123.30;;
13999;SDS011;7075;53.574;10.054;2022-10-20T04:00:45;129.90;;;123.28;;
13999;SDS011;7075;53.574;10.054;2022-10-20T04:03:11;127.15;;;120.55;;
13999;SDS011;7075;53.574;10.054;2022-10-20T04:05:37;126.22;;;119.70;;
13999;SDS011;7075;53.574;10.054;2022-10-20T04:08:03;127.22;;;120.72;;
13999;SDS011;7075;53.574;10.054;2022-10-20T04:10:29;123.70;;;117.43;;
13999;SDS011;7075;53.574;10.054;2022-10-20T04:13:00;120.22;;;113.97;;
13999;SDS011;7075;53.574;10.054;2022-10-20T04:15:26;122.03;;;115.80;;
13999;SDS011;7075;53.574;10.054;2022-10-20T04:17:52;129.47;;;122.57;;
13999;SDS011;7075;53.574;10.054;2022-10-20T04:20:17;126.43;;;119.73;;
13999;SDS011;7075;53.574;10.054;2022-10-20T04:22:43;121.20;;;114.65;;
13999;SDS011;7075;53.574;10.054;2022-10-20T04:25:09;126.68;;;119.88;;
13999;SDS011;7075;53.574;10.054;2022-10-20T04:27:36;122.22;;;115.63;;
13999;SDS011;7075;53.574;10.054;2022-10-20T04:30:03;123.70;;;116.47;;
13999;SDS011;7075;53.574;10.054;2022-10-20T04:32:29;118.75;;;112.55;;
13999;SDS011;7075;53.574;10.054;2022-10-20T04:34:54;110.27;;;104.33;;
13999;SDS011;7075;53.574;10.054;2022-10-20T04:37:20;109.20;;;103.38;;
13999;SDS011;7075;53.574;10.054;2022-10-20T04:39:46;111.70;;;105.70;;
13999;SDS011;7075;53.574;10.054;2022-10-20T04:42:11;118.47;;;112.10;;
13999;SDS011;7075;53.574;10.054;2022-10-20T04:44:37;123.20;;;116.70;;
13999;SDS011;7075;53.574;10.054;2022-10-20T04:47:03;116.80;;;110.63;;
13999;SDS011;7075;53.574;10.054;2022-10-20T04:49:29;126.87;;;119.97;;
13999;SDS011;7075;53.574;10.054;2022-10-20T04:51:54;118.60;;;112.25;;
13999;SDS011;7075;53.574;10.054;2022-10-20T04:54:20;123.07;;;116.50;;
13999;SDS011;7075;53.574;10.054;2022-10-20T04:56:45;124.60;;;118.07;;
13999;SDS011;7075;53.574;10.054;2022-10-20T04:59:11;121.35;;;114.85;;
13999;SDS011;7075;53.574;10.054;2022-10-20T05:01:36;125.97;;;119.23;;
13999;SDS011;7075;53.574;10.054;2022-10-20T05:04:02;128.05;;;121.22;;
13999;SDS011;7075;53.574;10.054;2022-10-20T05:06:29;127.20;;;120.47;;
13999;SDS011;7075;53.574;10.054;2022-10-20T05:08:56;120.95;;;114.57;;
13999;SDS011;7075;53.574;10.054;2022-10-20T05:11:24;124.43;;;117.90;;
13999;SDS011;7075;53.574;10.054;2022-10-20T05:13:51;132.38;;;125.18;;
13999;SDS011;7075;53.574;10.054;2022-10-20T05:16:16;131.80;;;124.60;;
13999;SDS011;7075;53.574;10.054;2022-10-20T05:18:42;130.93;;;123.90;;
13999;SDS011;7075;53.574;10.054;2022-10-20T05:21:09;133.38;;;126.38;;
13999;SDS011;7075;53.574;10.054;2022-10-20T05:23:37;130.45;;;123.35;;
13999;SDS011;7075;53.574;10.054;2022-10-20T05:26:04;132.73;;;125.43;;
13999;SDS011;7075;53.574;10.054;2022-10-20T05:28:31;122.00;;;115.55;;
13999;SDS011;7075;53.574;10.054;2022-10-20T05:31:01;127.30;;;120.40;;
13999;SDS011;7075;53.574;10.054;2022-10-20T05:33:27;125.47;;;118.77;;
13999;SDS011;7075;53.574;10.054;2022-10-20T05:35:53;124.53;;;117.93;;
13999;SDS011;7075;53.574;10.054;2022-10-20T05:38:18;127.93;;;121.23;;
13999;SDS011;7075;53.574;10.054;2022-10-20T05:40:44;122.15;;;115.78;;
13999;SDS011;7075;53.574;10.054;2022-10-20T05:43:09;117.30;;;111.03;;
13999;SDS011;7075;53.574;10.054;2022-10-20T05:45:35;112.93;;;107.03;;
13999;SDS011;7075;53.574;10.054;2022-10-20T05:48:00;105.32;;;99.63;;
13999;SDS011;7075;53.574;10.054;2022-10-20T05:50:26;109.67;;;103.73;;
13999;SDS011;7075;53.574;10.054;2022-10-20T05:52:51;100.83;;;95.27;;
13999;SDS011;7075;53.574;10.054;2022-10-20T05:55:17;95.47;;;90.28;;
13999;SDS011;7075;53.574;10.054;2022-10-20T05:57:43;87.40;;;82.85;;
13999;SDS011;7075;53.574;10.054;2022-10-20T06:00:09;98.60;;;93.13;;
13999;SDS011;7075;53.574;10.054;2022-10-20T06:02:35;92.28;;;87.25;;
13999;SDS011;7075;53.574;10.054;2022-10-20T06:05:01;91.68;;;86.88;;
13999;SDS011;7075;53.574;10.054;2022-10-20T06:07:27;88.90;;;84.07;;
13999;SDS011;7075;53.574;10.054;2022-10-20T06:09:52;93.97;;;88.77;;
13999;SDS011;7075;53.574;10.054;2022-10-20T06:12:18;113.35;;;107.35;;
13999;SDS011;7075;53.574;10.054;2022-10-20T06:14:44;116.10;;;109.90;;
13999;SDS011;7075;53.574;10.054;2022-10-20T06:17:09;121.40;;;115.10;;
13999;SDS011;7075;53.574;10.054;2022-10-20T06:19:35;109.55;;;103.93;;
13999;SDS011;7075;53.574;10.054;2022-10-20T06:22:00;102.97;;;97.57;;
13999;SDS011;7075;53.574;10.054;2022-10-20T06:24:26;119.50;;;113.20;;
13999;SDS011;7075;53.574;10.054;2022-10-20T06:26:51;112.53;;;106.80;;
13999;SDS011;7075;53.574;10.054;2022-10-20T06:29:17;111.47;;;105.50;;
13999;SDS011;7075;53.574;10.054;2022-10-20T06:31:44;112.38;;;106.20;;
13999;SDS011;7075;53.574;10.054;2022-10-20T06:34:18;105.63;;;100.18;;
13999;SDS011;7075;53.574;10.054;2022-10-20T06:36:45;100.45;;;95.32;;
13999;SDS011;7075;53.574;10.054;2022-10-20T06:39:16;104.53;;;98.93;;
13999;SDS011;7075;53.574;10.054;2022-10-20T06:41:50;101.07;;;95.70;;
13999;SDS011;7075;53.574;10.054;2022-10-20T06:44:17;101.15;;;95.78;;
13999;SDS011;7075;53.574;10.054;2022-10-20T06:46:44;102.00;;;96.57;;
13999;SDS011;7075;53.574;10.054;2022-10-20T06:49:10;99.18;;;93.97;;
13999;SDS011;7075;53.574;10.054;2022-10-20T06:51:37;101.97;;;96.40;;
13999;SDS011;7075;53.574;10.054;2022-10-20T06:54:03;105.35;;;99.90;;
13999;SDS011;7075;53.574;10.054;2022-10-20T06:56:29;102.68;;;97.07;;
13999;SDS011;7075;53.574;10.054;2022-10-20T06:58:57;98.28;;;93.03;;
13999;SDS011;7075;53.574;10.054;2022-10-20T07:01:30;104.43;;;98.75;;
13999;SDS011;7075;53.574;10.054;2022-10-20T07:03:58;99.63;;;94.43;;
13999;SDS011;7075;53.574;10.054;2022-10-20T07:06:27;101.45;;;96.05;;
13999;SDS011;7075;53.574;10.054;2022-10-20T07:08:55;105.88;;;100.20;;
13999;SDS011;7075;53.574;10.054;2022-10-20T07:11:22;115.25;;;109.15;;
13999;SDS011;7075;53.574;10.054;2022-10-20T07:13:49;98.60;;;93.38;;
13999;SDS011;7075;53.574;10.054;2022-10-20T07:16:17;105.18;;;99.65;;
13999;SDS011;7075;53.574;10.054;2022-10-20T07:18:44;101.45;;;95.93;;
13999;SDS011;7075;53.574;10.054;2022-10-20T07:21:11;106.68;;;100.80;;
13999;SDS011;7075;53.574;10.054;2022-10-20T07:23:38;99.38;;;94.07;;
13999;SDS011;7075;53.574;10.054;2022-10-20T07:26:05;98.20;;;92.83;;
13999;SDS011;7075;53.574;10.054;2022-10-20T07:28:36;108.35;;;102.43;;
13999;SDS011;7075;53.574;10.054;2022-10-20T07:31:26;98.53;;;92.95;;
13999;SDS011;7075;53.574;10.054;2022-10-20T07:33:54;96.43;;;91.03;;
13999;SDS011;7075;53.574;10.054;2022-10-20T07:36:26;95.05;;;89.88;;
13999;SDS011;7075;53.574;10.054;2022-10-20T07:38:54;91.57;;;86.75;;
13999;SDS011;7075;53.574;10.054;2022-10-20T07:41:21;93.13;;;88.13;;
13999;SDS011;7075;53.574;10.054;2022-10-20T07:43:47;88.93;;;84.03;;
13999;SDS011;7075;53.574;10.054;2022-10-20T07:46:13;97.50;;;92.10;;
13999;SDS011;7075;53.574;10.054;2022-10-20T07:48:40;91.32;;;86.32;;
13999;SDS011;7075;53.574;10.054;2022-10-20T07:51:12;90.30;;;85.30;;
13999;SDS011;7075;53.574;10.054;2022-10-20T07:53:51;92.45;;;87.43;;
13999;SDS011;7075;53.574;10.054;2022-10-20T07:56:18;92.13;;;87.28;;
13999;SDS011;7075;53.574;10.054;2022-10-20T07:58:44;89.28;;;84.45;;
13999;SDS011;7075;53.574;10.054;2022-10-20T08:01:10;95.00;;;89.78;;
13999;SDS011;7075;53.574;10.054;2022-10-20T08:03:36;95.25;;;90.13;;
13999;SDS011;7075;53.574;10.054;2022-10-20T08:06:01;92.43;;;87.33;;
13999;SDS011;7075;53.574;10.054;2022-10-20T08:08:28;99.13;;;93.72;;
13999;SDS011;7075;53.574;10.054;2022-10-20T08:10:53;90.72;;;85.93;;
13999;SDS011;7075;53.574;10.054;2022-10-20T08:13:19;97.78;;;92.53;;
13999;SDS011;7075;53.574;10.054;2022-10-20T08:15:45;95.72;;;90.53;;
13999;SDS011;7075;53.574;10.054;2022-10-20T08:18:11;100.90;;;95.15;;
13999;SDS011;7075;53.574;10.054;2022-10-20T08:20:36;105.45;;;99.90;;
13999;SDS011;7075;53.574;10.054;2022-10-20T08:23:02;108.20;;;102.40;;
13999;SDS011;7075;53.574;10.054;2022-10-20T08:25:28;108.73;;;102.87;;
13999;SDS011;7075;53.574;10.054;2022-10-20T08:27:53;121.95;;;115.43;;
13999;SDS011;7075;53.574;10.054;2022-10-20T08:30:19;118.18;;;111.95;;
13999;SDS011;7075;53.574;10.054;2022-10-20T08:32:44;128.57;;;121.67;;
13999;SDS011;7075;53.574;10.054;2022-10-20T08:35:14;122.03;;;115.63;;
13999;SDS011;7075;53.574;10.054;2022-10-20T08:37:39;125.55;;;118.88;;
13999;SDS011;7075;53.574;10.054;2022-10-20T08:40:05;138.13;;;130.83;;
13999;SDS011;7075;53.574;10.054;2022-10-20T08:42:33;144.30;;;136.53;;
13999;SDS011;7075;53.574;10.054;2022-10-20T08:45:03;130.60;;;123.45;;
13999;SDS011;7075;53.574;10.054;2022-10-20T08:47:30;139.55;;;131.93;;
13999;SDS011;7075;53.574;10.054;2022-10-20T08:50:00;135.27;;;128.17;;
13999;SDS011;7075;53.574;10.054;2022-10-20T08:52:29;139.25;;;131.73;;
13999;SDS011;7075;53.574;10.054;2022-10-20T08:54:55;141.77;;;134.27;;
13999;SDS011;7075;53.574;10.054;2022-10-20T08:57:22;136.70;;;129.50;;
13999;SDS011;7075;53.574;10.054;2022-10-20T08:59:53;128.50;;;121.85;;
13999;SDS011;7075;53.574;10.054;2022-10-20T09:02:23;130.47;;;123.53;;
13999;SDS011;7075;53.574;10.054;2022-10-20T09:04:50;122.93;;;116.70;;
13999;SDS011;7075;53.574;10.054;2022-10-20T09:07:32;130.13;;;123.53;;
13999;SDS011;7075;53.574;10.054;2022-10-20T09:10:34;128.23;;;121.63;;
13999;SDS011;7075;53.574;10.054;2022-10-20T09:12:51;132.57;;;125.68;;
13999;SDS011;7075;53.574;10.054;2022-10-20T09:15:17;135.20;;;128.43;;
13999;SDS011;7075;53.574;10.054;2022-10-20T09:17:52;142.68;;;135.32;;
13999;SDS011;7075;53.574;10.054;2022-10-20T09:20:36;141.27;;;134.20;;
13999;SDS011;7075;53.574;10.054;2022-10-20T09:23:12;144.35;;;136.73;;
13999;SDS011;7075;53.574;10.054;2022-10-20T09:25:40;152.43;;;144.77;;
13999;SDS011;7075;53.574;10.054;2022-10-20T09:28:07;146.50;;;138.90;;
13999;SDS011;7075;53.574;10.054;2022-10-20T09:30:45;146.33;;;138.83;;
13999;SDS011;7075;53.574;10.054;2022-10-20T09:33:21;149.50;;;141.77;;
13999;SDS011;7075;53.574;10.054;2022-10-20T09:35:57;137.65;;;130.52;;
13999;SDS011;7075;53.574;10.054;2022-10-20T09:38:46;142.00;;;134.57;;
13999;SDS011;7075;53.574;10.054;2022-10-20T09:41:17;150.50;;;142.40;;
13999;SDS011;7075;53.574;10.054;2022-10-20T09:44:00;149.10;;;140.77;;
13999;SDS011;7075;53.574;10.054;2022-10-20T09:46:29;146.80;;;139.15;;
13999;SDS011;7075;53.574;10.054;2022-10-20T09:49:01;148.15;;;140.55;;
13999;SDS011;7075;53.574;10.054;2022-10-20T09:51:27;152.57;;;144.68;;
13999;SDS011;7075;53.574;10.054;2022-10-20T09:53:59;153.60;;;145.43;;
13999;SDS011;7075;53.574;10.054;2022-10-20T09:56:35;151.95;;;144.02;;
13999;SDS011;7075;53.574;10.054;2022-10-20T09:59:06;158.98;;;150.25;;
13999;SDS011;7075;53.574;10.054;2022-10-20T10:01:57;152.80;;;144.48;;
13999;SDS011;7075;53.574;10.054;2022-10-20T10:04:31;143.88;;;135.90;;
13999;SDS011;7075;53.574;10.054;2022-10-20T10:06:59;137.93;;;130.13;;
13999;SDS011;7075;53.574;10.054;2022-10-20T10:09:33;132.73;;;125.28;;
13999;SDS011;7075;53.574;10.054;2022-10-20T10:14:36;137.67;;;130.07;;
13999;SDS011;7075;53.574;10.054;2022-10-20T10:17:13;136.05;;;128.38;;
13999;SDS011;7075;53.574;10.054;2022-10-20T10:19:53;137.57;;;129.75;;
13999;SDS011;7075;53.574;10.054;2022-10-20T10:22:19;128.75;;;121.72;;
13999;SDS011;7075;53.574;10.054;2022-10-20T10:24:45;125.33;;;118.43;;
13999;SDS011;7075;53.574;10.054;2022-10-20T10:27:21;118.90;;;112.53;;
13999;SDS011;7075;53.574;10.054;2022-10-20T10:29:52;109.63;;;103.65;;
13999;SDS011;7075;53.574;10.054;2022-10-20T10:32:23;109.13;;;103.43;;
13999;SDS011;7075;53.574;10.054;2022-10-20T10:37:53;107.57;;;101.88;;
13999;SDS011;7075;53.574;10.054;2022-10-20T10:40:21;98.03;;;92.90;;
13999;SDS011;7075;53.574;10.054;2022-10-20T10:50:58;106.57;;;100.97;;
13999;SDS011;7075;53.574;10.054;2022-10-20T10:59:21;123.03;;;116.40;;
13999;SDS011;7075;53.574;10.054;2022-10-20T11:07:41;115.82;;;109.90;;
13999;SDS011;7075;53.574;10.054;2022-10-20T11:13:07;119.38;;;113.22;;
13999;SDS011;7075;53.574;10.054;2022-10-20T11:18:35;140.25;;;132.85;;
13999;SDS011;7075;53.574;10.054;2022-10-20T11:21:21;148.13;;;140.32;;
13999;SDS011;7075;53.574;10.054;2022-10-20T11:23:56;140.45;;;132.98;;
13999;SDS011;7075;53.574;10.054;2022-10-20T11:26:32;147.40;;;139.80;;
13999;SDS011;7075;53.574;10.054;2022-10-20T11:29:04;150.13;;;142.43;;
13999;SDS011;7075;53.574;10.054;2022-10-20T11:31:41;150.38;;;142.43;;
13999;SDS011;7075;53.574;10.054;2022-10-20T11:36:51;155.60;;;147.07;;
13999;SDS011;7075;53.574;10.054;2022-10-20T11:39:38;142.95;;;134.90;;
13999;SDS011;7075;53.574;10.054;2022-10-20T11:42:17;152.80;;;144.60;;
13999;SDS011;7075;53.574;10.054;2022-10-20T11:44:50;156.27;;;148.00;;
13999;SDS011;7075;53.574;10.054;2022-10-20T11:47:24;156.77;;;148.53;;
13999;SDS011;7075;53.574;10.054;2022-10-20T11:49:58;154.35;;;146.15;;
13999;SDS011;7075;53.574;10.054;2022-10-20T11:57:43;157.98;;;149.27;;
13999;SDS011;7075;53.574;10.054;2022-10-20T12:05:54;150.50;;;142.25;;
13999;SDS011;7075;53.574;10.054;2022-10-20T12:08:44;156.63;;;148.27;;
13999;SDS011;7075;53.574;10.054;2022-10-20T12:14:09;165.82;;;157.02;;
13999;SDS011;7075;53.574;10.054;2022-10-20T12:19:19;194.20;;;184.50;;
13999;SDS011;7075;53.574;10.054;2022-10-20T12:24:40;188.93;;;179.60;;
13999;SDS011;7075;53.574;10.054;2022-10-20T12:37:37;208.18;;;197.65;;
13999;SDS011;7075;53.574;10.054;2022-10-20T12:42:39;194.13;;;184.27;;
13999;SDS011;7075;53.574;10.054;2022-10-20T12:45:22;227.23;;;214.95;;
13999;SDS011;7075;53.574;10.054;2022-10-20T12:47:51;220.07;;;207.55;;
13999;SDS011;7075;53.574;10.054;2022-10-20T12:52:48;217.35;;;205.65;;
13999;SDS011;7075;53.574;10.054;2022-10-20T12:55:29;221.60;;;210.00;;
13999;SDS011;7075;53.574;10.054;2022-10-20T13:09:30;306.38;;;288.40;;
13999;SDS011;7075;53.574;10.054;2022-10-20T13:11:50;306.60;;;288.37;;
13999;SDS011;7075;53.574;10.054;2022-10-20T13:14:21;303.95;;;286.30;;
13999;SDS011;7075;53.574;10.054;2022-10-20T13:17:11;302.08;;;284.50;;
13999;SDS011;7075;53.574;10.054;2022-10-20T13:19:45;309.25;;;290.95;;
13999;SDS011;7075;53.574;10.054;2022-10-20T13:25:13;311.77;;;293.98;;
13999;SDS011;7075;53.574;10.054;2022-10-20T13:27:46;321.45;;;303.17;;
13999;SDS011;7075;53.574;10.054;2022-10-20T13:30:18;330.50;;;311.90;;
13999;SDS011;7075;53.574;10.054;2022-10-20T13:35:34;320.80;;;303.88;;
13999;SDS011;7075;53.574;10.054;2022-10-20T13:38:18;311.60;;;295.05;;
13999;SDS011;7075;53.574;10.054;2022-10-20T13:46:33;310.27;;;292.55;;
13999;SDS011;7075;53.574;10.054;2022-10-20T13:49:23;320.00;;;302.00;;
13999;SDS011;7075;53.574;10.054;2022-10-20T13:51:55;309.77;;;291.95;;
13999;SDS011;7075;53.574;10.054;2022-10-20T13:54:25;319.70;;;301.30;;
13999;SDS011;7075;53.574;10.054;2022-10-20T13:56:53;314.10;;;295.67;;
13999;SDS011;7075;53.574;10.054;2022-10-20T13:59:21;313.73;;;295.17;;
13999;SDS011;7075;53.574;10.054;2022-10-20T14:01:50;307.80;;;289.13;;
13999;SDS011;7075;53.574;10.054;2022-10-20T14:04:22;302.55;;;284.45;;
13999;SDS011;7075;53.574;10.054;2022-10-20T14:06:48;295.48;;;277.73;;
13999;SDS011;7075;53.574;10.054;2022-10-20T14:09:19;299.25;;;281.38;;
13999;SDS011;7075;53.574;10.054;2022-10-20T14:11:54;289.83;;;272.47;;
13999;SDS011;7075;53.574;10.054;2022-10-20T14:14:29;291.75;;;274.50;;
13999;SDS011;7075;53.574;10.054;2022-10-20T14:19:26;305.60;;;286.85;;
13999;SDS011;7075;53.574;10.054;2022-10-20T14:21:53;295.98;;;277.92;;
13999;SDS011;7075;53.574;10.054;2022-10-20T14:24:28;309.92;;;290.95;;
13999;SDS011;7075;53.574;10.054;2022-10-20T14:26:57;302.95;;;284.67;;
13999;SDS011;7075;53.574;10.054;2022-10-20T14:29:27;319.60;;;300.52;;
13999;SDS011;7075;53.574;10.054;2022-10-20T14:31:55;327.85;;;308.98;;
13999;SDS011;7075;53.574;10.054;2022-10-20T14:34:22;327.38;;;308.85;;
13999;SDS011;7075;53.574;10.054;2022-10-20T14:36:51;313.70;;;296.75;;
13999;SDS011;7075;53.574;10.054;2022-10-20T14:39:37;287.90;;;272.95;;
13999;SDS011;7075;53.574;10.054;2022-10-20T14:42:13;282.67;;;268.13;;
13999;SDS011;7075;53.574;10.054;2022-10-20T14:44:49;240.67;;;228.03;;
13999;SDS011;7075;53.574;10.054;2022-10-20T14:47:17;204.10;;;192.48;;
13999;SDS011;7075;53.574;10.054;2022-10-20T14:49:45;222.70;;;209.87;;
13999;SDS011;7075;53.574;10.054;2022-10-20T14:54:45;240.32;;;226.82;;
13999;SDS011;7075;53.574;10.054;2022-10-20T15:02:24;249.75;;;236.07;;
13999;SDS011;7075;53.574;10.054;2022-10-20T15:04:52;232.43;;;220.13;;
13999;SDS011;7075;53.574;10.054;2022-10-20T15:07:20;235.07;;;223.00;;
13999;SDS011;7075;53.574;10.054;2022-10-20T15:09:49;219.77;;;208.52;;
13999;SDS011;7075;53.574;10.054;2022-10-20T15:14:51;219.80;;;208.60;;
13999;SDS011;7075;53.574;10.054;2022-10-20T15:19:57;203.57;;;193.35;;
13999;SDS011;7075;53.574;10.054;2022-10-20T15:22:23;206.45;;;196.35;;
13999;SDS011;7075;53.574;10.054;2022-10-20T15:24:49;206.90;;;196.60;;
13999;SDS011;7075;53.574;10.054;2022-10-20T15:27:15;199.18;;;189.13;;
13999;SDS011;7075;53.574;10.054;2022-10-20T15:29:46;218.93;;;207.82;;
13999;SDS011;7075;53.574;10.054;2022-10-20T15:32:14;199.52;;;189.57;;
13999;SDS011;7075;53.574;10.054;2022-10-20T15:34:40;200.60;;;190.38;;
13999;SDS011;7075;53.574;10.054;2022-10-20T15:37:06;200.63;;;190.57;;
13999;SDS011;7075;53.574;10.054;2022-10-20T15:39:31;207.55;;;197.02;;
13999;SDS011;7075;53.574;10.054;2022-10-20T15:41:57;205.20;;;194.93;;
13999;SDS011;7075;53.574;10.054;2022-10-20T15:44:22;195.15;;;185.25;;
13999;SDS011;7075;53.574;10.054;2022-10-20T15:46:49;212.15;;;201.18;;
13999;SDS011;7075;53.574;10.054;2022-10-20T15:49:20;207.77;;;197.33;;
13999;SDS011;7075;53.574;10.054;2022-10-20T15:51:46;205.93;;;195.32;;
13999;SDS011;7075;53.574;10.054;2022-10-20T15:54:13;202.20;;;191.73;;
13999;SDS011;7075;53.574;10.054;2022-10-20T15:56:44;201.10;;;190.70;;
13999;SDS011;7075;53.574;10.054;2022-10-20T15:59:09;193.37;;;183.47;;
13999;SDS011;7075;53.574;10.054;2022-10-20T16:01:35;199.73;;;189.17;;
13999;SDS011;7075;53.574;10.054;2022-10-20T16:04:20;190.23;;;180.43;;
13999;SDS011;7075;53.574;10.054;2022-10-20T16:06:49;185.55;;;175.80;;
13999;SDS011;7075;53.574;10.054;2022-10-20T16:09:17;188.43;;;178.63;;
13999;SDS011;7075;53.574;10.054;2022-10-20T16:11:46;193.47;;;183.23;;
13999;SDS011;7075;53.574;10.054;2022-10-20T16:14:12;172.70;;;163.60;;
13999;SDS011;7075;53.574;10.054;2022-10-20T16:16:39;173.23;;;163.80;;
13999;SDS011;7075;53.574;10.054;2022-10-20T16:19:06;171.68;;;162.23;;
13999;SDS011;7075;53.574;10.054;2022-10-20T16:21:32;177.27;;;167.65;;
13999;SDS011;7075;53.574;10.054;2022-10-20T16:23:58;181.00;;;171.20;;
13999;SDS011;7075;53.574;10.054;2022-10-20T16:26:25;170.73;;;161.50;;